createdAt,value
2019-02-12T00:00:29.494Z,3.00
2019-02-12T00:02:57.914Z,3.00
2019-02-12T00:05:26.351Z,2.90
2019-02-12T00:07:54.763Z,3.00
2019-02-12T00:10:23.170Z,3.00
2019-02-12T00:12:51.602Z,3.00
2019-02-12T00:15:20.030Z,3.00
2019-02-12T00:17:48.430Z,3.00
2019-02-12T00:20:16.937Z,3.10
2019-02-12T00:22:45.370Z,3.00
2019-02-12T00:25:13.779Z,3.00
2019-02-12T00:27:43.542Z,2.90
2019-02-12T00:30:12.468Z,2.90
2019-02-12T00:32:40.880Z,2.90
2019-02-12T00:35:09.286Z,2.90
2019-02-12T00:37:37.727Z,3.00
2019-02-12T00:40:08.779Z,3.00
2019-02-12T00:42:37.178Z,2.90
2019-02-12T00:45:08.744Z,2.90
2019-02-12T00:47:37.154Z,2.90
2019-02-12T00:50:10.791Z,2.90
2019-02-12T00:52:39.281Z,2.90
2019-02-12T00:55:08.552Z,3.00
2019-02-12T00:57:36.975Z,3.00
2019-02-12T01:00:13.692Z,3.00
2019-02-12T01:02:42.248Z,3.00
2019-02-12T01:05:10.890Z,3.00
2019-02-12T01:07:39.398Z,3.00
2019-02-12T01:10:10.460Z,3.00
2019-02-12T01:12:39.007Z,3.00
2019-02-12T01:15:10.875Z,3.00
2019-02-12T01:17:39.359Z,2.90
2019-02-12T01:20:10.525Z,2.90
2019-02-12T01:22:38.943Z,2.90
2019-02-12T01:25:08.407Z,3.00
2019-02-12T01:27:36.819Z,2.90
2019-02-12T01:30:11.248Z,2.90
2019-02-12T01:32:39.847Z,2.90
2019-02-12T01:35:08.396Z,2.70
2019-02-12T01:37:36.821Z,2.70
2019-02-12T01:40:07.466Z,2.60
2019-02-12T01:42:35.886Z,2.60
2019-02-12T01:45:07.582Z,2.60
2019-02-12T01:47:35.994Z,2.60
2019-02-12T01:50:06.371Z,2.50
2019-02-12T01:52:34.786Z,2.60
2019-02-12T01:55:03.266Z,2.50
2019-02-12T01:57:31.695Z,2.60
2019-02-12T02:00:00.133Z,2.60
2019-02-12T02:02:28.790Z,2.60
2019-02-12T02:04:57.230Z,2.60
2019-02-12T02:07:25.658Z,2.70
2019-02-12T02:09:54.062Z,2.70
2019-02-12T02:12:22.483Z,2.60
2019-02-12T02:14:50.978Z,2.70
2019-02-12T02:17:19.409Z,2.70
2019-02-12T02:19:47.818Z,2.70
2019-02-12T02:22:16.246Z,2.70
2019-02-12T02:24:44.659Z,2.70
2019-02-12T02:27:13.086Z,2.70
2019-02-12T02:29:41.591Z,2.70
2019-02-12T02:32:09.999Z,2.70
2019-02-12T02:34:38.448Z,2.70
2019-02-12T02:37:06.874Z,2.70
2019-02-12T02:39:35.286Z,2.70
2019-02-12T02:42:03.726Z,2.70
2019-02-12T02:44:32.141Z,2.70
2019-02-12T02:47:00.580Z,2.70
2019-02-12T02:49:29.017Z,2.70
2019-02-12T02:51:57.417Z,2.70
2019-02-12T02:54:25.849Z,2.70
2019-02-12T02:56:54.259Z,2.70
2019-02-12T02:59:22.687Z,2.70
2019-02-12T03:01:51.182Z,2.70
2019-02-12T03:04:19.619Z,2.70
2019-02-12T03:06:48.031Z,2.70
2019-02-12T03:09:16.438Z,2.70
2019-02-12T03:11:44.872Z,2.70
2019-02-12T03:14:13.283Z,2.60
2019-02-12T03:16:41.706Z,2.60
2019-02-12T03:19:10.119Z,2.60
2019-02-12T03:21:38.549Z,2.70
2019-02-12T03:24:06.959Z,2.60
2019-02-12T03:26:35.388Z,2.60
2019-02-12T03:29:03.810Z,2.60
2019-02-12T03:31:32.216Z,2.60
2019-02-12T03:34:00.645Z,2.60
2019-02-12T03:36:29.051Z,2.60
2019-02-12T03:38:57.464Z,2.50
2019-02-12T03:41:25.962Z,2.60
2019-02-12T03:43:54.396Z,2.60
2019-02-12T03:46:22.803Z,2.60
2019-02-12T03:48:51.210Z,2.50
2019-02-12T03:51:19.684Z,2.50
2019-02-12T03:53:48.096Z,2.50
2019-02-12T03:56:16.532Z,2.40
2019-02-12T03:58:45.019Z,2.30
2019-02-12T04:01:13.428Z,2.30
2019-02-12T04:03:42.898Z,2.30
2019-02-12T04:06:11.307Z,2.30
2019-02-12T04:08:39.768Z,2.20
2019-02-12T04:11:08.166Z,2.20
2019-02-12T04:13:36.599Z,2.20
2019-02-12T04:16:05.035Z,2.20
2019-02-12T04:18:33.479Z,2.10
2019-02-12T04:21:01.926Z,2.10
2019-02-12T04:23:30.352Z,2.10
2019-02-12T04:25:58.780Z,2.10
2019-02-12T04:28:27.182Z,2.10
2019-02-12T04:30:55.675Z,2.10
2019-02-12T04:33:24.083Z,2.20
2019-02-12T04:35:52.507Z,2.20
2019-02-12T04:38:20.935Z,2.20
2019-02-12T04:40:49.371Z,2.20
2019-02-12T04:43:17.770Z,2.10
2019-02-12T04:45:46.179Z,2.10
2019-02-12T04:48:14.610Z,2.10
2019-02-12T04:50:43.045Z,2.20
2019-02-12T04:53:11.478Z,2.10
2019-02-12T04:55:39.900Z,2.10
2019-02-12T04:58:08.383Z,2.10
2019-02-12T05:00:36.814Z,2.20
2019-02-12T05:03:05.244Z,2.20
2019-02-12T05:05:33.675Z,2.10
2019-02-12T05:08:02.107Z,2.10
2019-02-12T05:10:39.579Z,2.10
2019-02-12T05:13:08.007Z,2.20
2019-02-12T05:15:36.428Z,2.20
2019-02-12T05:18:04.858Z,2.10
2019-02-12T05:20:33.269Z,2.10
2019-02-12T05:23:01.699Z,2.20
2019-02-12T05:25:30.126Z,2.20
2019-02-12T05:27:58.542Z,2.20
2019-02-12T05:30:26.963Z,2.20
2019-02-12T05:32:55.377Z,2.20
2019-02-12T05:35:23.783Z,2.20
2019-02-12T05:37:52.224Z,2.30
2019-02-12T05:40:20.650Z,2.20
2019-02-12T05:42:49.070Z,2.30
2019-02-12T05:45:17.489Z,2.30
2019-02-12T05:47:45.935Z,2.30
2019-02-12T05:50:16.332Z,2.30
2019-02-12T05:52:53.902Z,2.20
2019-02-12T05:55:14.908Z,2.20
2019-02-12T05:57:43.347Z,2.30
2019-02-12T06:00:20.959Z,2.10
2019-02-12T06:02:49.380Z,2.10
2019-02-12T06:05:30.493Z,2.00
2019-02-12T06:07:59.015Z,2.00
2019-02-12T06:10:27.456Z,2.00
2019-02-12T06:12:55.915Z,2.10
2019-02-12T06:15:24.339Z,2.10
2019-02-12T06:17:52.875Z,2.10
2019-02-12T06:20:21.314Z,2.00
2019-02-12T06:22:49.748Z,2.00
2019-02-12T06:25:18.239Z,2.00
2019-02-12T06:27:46.659Z,2.00
2019-02-12T06:30:15.081Z,2.00
2019-02-12T06:32:43.497Z,2.00
2019-02-12T06:35:12.195Z,2.00
2019-02-12T06:37:40.610Z,1.90
2019-02-12T06:40:12.090Z,1.80
2019-02-12T06:42:40.656Z,1.80
2019-02-12T06:45:13.762Z,1.90
2019-02-12T06:47:42.231Z,2.00
2019-02-12T06:50:12.761Z,1.90
2019-02-12T06:52:41.195Z,1.90
2019-02-12T06:55:10.759Z,1.90
2019-02-12T06:57:40.092Z,1.90
2019-02-12T07:00:14.088Z,1.90
2019-02-12T07:03:05.246Z,2.00
2019-02-12T07:05:33.761Z,1.90
2019-02-12T07:08:13.911Z,1.90
2019-02-12T07:10:42.342Z,1.90
2019-02-12T07:13:19.414Z,1.90
2019-02-12T07:15:48.331Z,2.00
2019-02-12T07:18:36.559Z,1.90
2019-02-12T07:21:17.125Z,1.80
2019-02-12T07:23:54.147Z,1.80
2019-02-12T07:26:25.676Z,1.90
2019-02-12T07:28:59.883Z,1.90
2019-02-12T07:31:54.183Z,1.90
2019-02-12T07:34:34.623Z,1.90
2019-02-12T07:37:12.251Z,1.90
2019-02-12T07:39:55.315Z,1.90
2019-02-12T07:42:47.912Z,1.90
2019-02-12T07:45:19.411Z,1.90
2019-02-12T07:48:07.559Z,2.00
2019-02-12T07:50:39.155Z,2.00
2019-02-12T07:53:13.578Z,2.10
2019-02-12T07:55:51.514Z,2.10
2019-02-12T07:58:53.614Z,2.10
2019-02-12T08:01:34.110Z,2.20
2019-02-12T08:04:31.585Z,2.20
2019-02-12T08:07:09.259Z,2.20
2019-02-12T08:09:55.953Z,2.30
2019-02-12T08:12:36.278Z,2.40
2019-02-12T08:15:16.326Z,2.40
2019-02-12T08:17:56.615Z,2.50
2019-02-12T08:20:44.367Z,2.60
2019-02-12T08:23:41.294Z,2.60
2019-02-12T08:26:33.423Z,2.60
2019-02-12T08:29:13.787Z,2.60
2019-02-12T08:31:54.274Z,2.80
2019-02-12T08:34:47.095Z,2.70
2019-02-12T08:37:27.636Z,2.80
2019-02-12T08:40:04.882Z,3.00
2019-02-12T08:42:52.931Z,3.00
2019-02-12T08:45:50.290Z,3.10
2019-02-12T08:48:36.522Z,3.20
2019-02-12T08:51:13.936Z,3.30
2019-02-12T08:54:07.821Z,3.30
2019-02-12T08:56:47.863Z,3.30
2019-02-12T08:59:25.311Z,3.50
2019-02-12T09:02:02.746Z,3.50
2019-02-12T09:04:43.407Z,3.50
2019-02-12T09:07:33.246Z,3.50
2019-02-12T09:10:27.618Z,3.50
2019-02-12T09:13:08.231Z,3.60
2019-02-12T09:15:42.298Z,3.60
2019-02-12T09:18:13.812Z,3.70
2019-02-12T09:20:54.328Z,3.70
2019-02-12T09:23:28.641Z,3.80
2019-02-12T09:26:09.203Z,3.80
2019-02-12T09:28:52.858Z,3.90
2019-02-12T09:31:33.470Z,3.90
2019-02-12T09:34:07.699Z,3.90
2019-02-12T09:36:39.230Z,3.90
2019-02-12T09:39:26.047Z,4.00
2019-02-12T09:42:06.190Z,4.10
2019-02-12T09:44:40.466Z,4.20
2019-02-12T09:47:24.736Z,4.10
2019-02-12T09:50:17.606Z,4.20
2019-02-12T09:52:49.160Z,4.30
2019-02-12T09:55:29.641Z,4.20
2019-02-12T09:58:28.510Z,4.30
2019-02-12T10:01:02.701Z,4.30
2019-02-12T10:03:42.802Z,4.30
2019-02-12T10:06:21.568Z,4.50
2019-02-12T10:09:02.399Z,4.50
2019-02-12T10:11:54.613Z,4.60
2019-02-12T10:14:41.417Z,4.80
2019-02-12T10:17:29.271Z,4.80
2019-02-12T10:20:12.913Z,4.80
2019-02-12T10:23:02.706Z,4.70
2019-02-12T10:25:31.142Z,4.70
2019-02-12T10:28:14.721Z,4.70
2019-02-12T10:30:55.742Z,4.60
2019-02-12T10:33:24.155Z,4.60
2019-02-12T10:35:52.619Z,4.60
2019-02-12T10:38:21.055Z,4.60
2019-02-12T10:40:49.527Z,4.60
2019-02-12T10:43:18.130Z,4.60
2019-02-12T10:45:46.552Z,4.60
2019-02-12T10:48:14.986Z,4.70
2019-02-12T10:50:43.479Z,4.70
2019-02-12T10:53:11.921Z,4.60
2019-02-12T10:55:40.422Z,4.60
2019-02-12T10:58:08.815Z,4.60
2019-02-12T11:00:37.786Z,4.60
2019-02-12T11:03:06.671Z,4.60
2019-02-12T11:05:35.296Z,4.60
2019-02-12T11:08:03.804Z,4.70
2019-02-12T11:10:32.241Z,4.70
2019-02-12T11:13:00.659Z,4.80
2019-02-12T11:15:29.090Z,4.90
2019-02-12T11:17:57.532Z,4.90
2019-02-12T11:20:25.991Z,4.90
2019-02-12T11:22:54.412Z,5.00
2019-02-12T11:25:22.842Z,5.00
2019-02-12T11:27:51.342Z,5.00
2019-02-12T11:30:19.903Z,5.00
2019-02-12T11:32:48.399Z,5.10
2019-02-12T11:35:16.809Z,5.10
2019-02-12T11:37:45.249Z,5.10
2019-02-12T11:40:13.823Z,5.10
2019-02-12T11:42:42.431Z,5.00
2019-02-12T11:45:14.626Z,5.00
2019-02-12T11:47:43.062Z,5.00
2019-02-12T11:50:11.842Z,5.10
2019-02-12T11:52:40.268Z,5.10
2019-02-12T11:55:11.133Z,5.20
2019-02-12T11:57:39.620Z,5.20
2019-02-12T12:00:11.214Z,5.30
2019-02-12T12:02:41.997Z,5.30
2019-02-12T12:05:10.121Z,5.30
2019-02-12T12:07:38.542Z,5.30
2019-02-12T12:10:11.552Z,5.40
2019-02-12T12:12:39.982Z,5.40
2019-02-12T12:15:13.939Z,5.50
2019-02-12T12:17:42.381Z,5.50
2019-02-12T12:20:13.206Z,5.60
2019-02-12T12:22:41.635Z,5.60
2019-02-12T12:25:13.636Z,5.40
2019-02-12T12:27:42.066Z,5.60
2019-02-12T12:30:12.535Z,5.60
2019-02-12T12:32:40.951Z,5.50
2019-02-12T12:35:11.132Z,5.50
2019-02-12T12:37:39.609Z,5.50
2019-02-12T12:40:13.027Z,5.60
2019-02-12T12:42:41.460Z,5.60
2019-02-12T12:45:14.272Z,5.60
2019-02-12T12:47:42.707Z,5.60
2019-02-12T12:50:13.941Z,5.70
2019-02-12T12:52:42.382Z,5.70
2019-02-12T12:55:11.127Z,5.80
2019-02-12T12:57:41.885Z,5.80
2019-02-12T13:00:15.509Z,5.90
2019-02-12T13:02:44.048Z,5.90
2019-02-12T13:05:12.599Z,5.90
2019-02-12T13:07:41.039Z,5.90
2019-02-12T13:10:12.073Z,6.00
2019-02-12T13:12:40.529Z,6.00
2019-02-12T13:15:11.373Z,6.00
2019-02-12T13:17:39.815Z,5.90
2019-02-12T13:20:19.395Z,6.00
2019-02-12T13:22:47.837Z,6.10
2019-02-12T13:25:16.273Z,6.00
2019-02-12T13:27:44.683Z,6.00
2019-02-12T13:30:17.691Z,6.10
2019-02-12T13:32:46.210Z,6.00
2019-02-12T13:35:14.885Z,6.00
2019-02-12T13:37:43.307Z,5.90
2019-02-12T13:40:12.974Z,5.90
2019-02-12T13:42:41.464Z,5.90
2019-02-12T13:45:15.713Z,5.90
2019-02-12T13:47:44.258Z,5.90
2019-02-12T13:50:13.310Z,5.90
2019-02-12T13:52:41.883Z,6.00
2019-02-12T13:55:17.020Z,6.00
2019-02-12T13:57:41.733Z,6.10
2019-02-12T14:00:15.591Z,6.10
2019-02-12T14:02:43.997Z,6.10
2019-02-12T14:05:20.794Z,6.10
2019-02-12T14:07:49.251Z,6.10
2019-02-12T14:10:17.826Z,6.10
2019-02-12T14:12:46.323Z,6.10
2019-02-12T14:15:14.859Z,6.10
2019-02-12T14:17:43.307Z,6.10
2019-02-12T14:20:18.255Z,6.10
2019-02-12T14:22:46.789Z,6.20
2019-02-12T14:25:16.073Z,6.30
2019-02-12T14:27:44.591Z,6.30
2019-02-12T14:30:17.911Z,6.20
2019-02-12T14:32:46.403Z,6.20
2019-02-12T14:35:15.106Z,6.10
2019-02-12T14:37:43.525Z,6.10
2019-02-12T14:40:16.061Z,6.10
2019-02-12T14:42:44.505Z,6.00
2019-02-12T14:45:19.959Z,6.10
2019-02-12T14:47:48.395Z,6.00
2019-02-12T14:50:19.322Z,6.00
2019-02-12T14:52:47.820Z,6.00
2019-02-12T14:55:16.319Z,6.00
2019-02-12T14:57:44.812Z,6.00
2019-02-12T15:00:15.735Z,5.90
2019-02-12T15:02:44.239Z,5.90
2019-02-12T15:05:12.870Z,5.80
2019-02-12T15:07:41.279Z,5.80
2019-02-12T15:10:11.915Z,5.80
2019-02-12T15:12:40.369Z,5.80
2019-02-12T15:15:10.117Z,5.70
2019-02-12T15:17:38.631Z,5.70
2019-02-12T15:20:09.355Z,5.70
2019-02-12T15:22:37.897Z,5.70
2019-02-12T15:25:11.188Z,5.60
2019-02-12T15:27:39.691Z,5.60
2019-02-12T15:30:16.336Z,5.70
2019-02-12T15:32:44.829Z,5.60
2019-02-12T15:35:13.885Z,5.60
2019-02-12T15:37:42.543Z,5.60
2019-02-12T15:40:16.751Z,5.70
2019-02-12T15:42:45.263Z,5.70
2019-02-12T15:45:16.779Z,5.60
2019-02-12T15:47:45.297Z,5.60
2019-02-12T15:50:13.903Z,5.50
2019-02-12T15:52:42.376Z,5.50
2019-02-12T15:55:12.750Z,5.50
2019-02-12T15:57:43.703Z,5.40
2019-02-12T16:00:20.564Z,5.40
2019-02-12T16:02:49.355Z,5.50
2019-02-12T16:05:18.369Z,5.30
2019-02-12T16:07:47.636Z,5.30
2019-02-12T16:10:20.371Z,5.20
2019-02-12T16:12:51.348Z,5.20
2019-02-12T16:15:23.815Z,5.20
2019-02-12T16:17:50.218Z,5.10
2019-02-12T16:20:18.663Z,5.10
2019-02-12T16:22:47.129Z,5.10
2019-02-12T16:25:15.774Z,5.00
2019-02-12T16:27:44.300Z,5.00
2019-02-12T16:30:15.711Z,4.90
2019-02-12T16:32:44.120Z,4.90
2019-02-12T16:35:14.401Z,4.90
2019-02-12T16:37:42.901Z,4.80
2019-02-12T16:40:15.829Z,4.70
2019-02-12T16:42:44.547Z,4.60
2019-02-12T16:45:34.020Z,4.60
2019-02-12T16:48:02.526Z,4.50
2019-02-12T16:50:30.951Z,4.50
2019-02-12T16:52:59.507Z,4.40
2019-02-12T16:55:27.951Z,4.40
2019-02-12T16:57:56.431Z,4.40
2019-02-12T17:00:24.852Z,4.40
2019-02-12T17:02:53.279Z,4.40
2019-02-12T17:05:21.702Z,4.30
2019-02-12T17:07:50.146Z,4.30
2019-02-12T17:10:18.627Z,4.40
2019-02-12T17:12:47.130Z,4.40
2019-02-12T17:15:15.630Z,4.20
2019-02-12T17:17:44.127Z,4.10
2019-02-12T17:20:15.100Z,4.10
2019-02-12T17:22:43.606Z,4.10
2019-02-12T17:25:12.530Z,4.10
2019-02-12T17:27:41.084Z,4.00
2019-02-12T17:30:15.117Z,4.00
2019-02-12T17:32:43.561Z,3.90
2019-02-12T17:35:12.232Z,4.00
2019-02-12T17:37:40.804Z,4.00
2019-02-12T17:40:19.080Z,3.90
2019-02-12T17:42:47.527Z,4.10
2019-02-12T17:45:16.922Z,4.00
2019-02-12T17:47:45.443Z,4.00
2019-02-12T17:50:14.581Z,4.00
2019-02-12T17:52:43.158Z,3.90
2019-02-12T17:55:11.939Z,3.90
2019-02-12T17:57:40.426Z,4.00
2019-02-12T18:00:16.141Z,4.00
2019-02-12T18:02:44.580Z,3.90
2019-02-12T18:05:13.152Z,3.80
2019-02-12T18:07:41.568Z,3.80
2019-02-12T18:10:11.340Z,3.80
2019-02-12T18:12:39.901Z,3.80
2019-02-12T18:15:15.024Z,3.60
2019-02-12T18:17:43.508Z,3.60
2019-02-12T18:20:14.297Z,3.70
2019-02-12T18:22:42.767Z,3.70
2019-02-12T18:25:11.342Z,3.70
2019-02-12T18:27:40.719Z,3.70
2019-02-12T18:30:16.494Z,3.80
2019-02-12T18:32:44.999Z,3.80
2019-02-12T18:35:14.313Z,3.80
2019-02-12T18:37:42.755Z,3.70
2019-02-12T18:40:16.061Z,3.70
2019-02-12T18:42:44.539Z,3.60
2019-02-12T18:45:23.353Z,3.60
2019-02-12T18:47:51.823Z,3.50
2019-02-12T18:50:20.327Z,3.60
2019-02-12T18:52:48.839Z,3.50
2019-02-12T18:55:17.328Z,3.40
2019-02-12T18:57:45.738Z,3.50
2019-02-12T19:00:21.260Z,3.40
2019-02-12T19:02:49.677Z,3.50
2019-02-12T19:05:18.099Z,3.50
2019-02-12T19:07:46.582Z,3.50
2019-02-12T19:10:16.530Z,3.50
2019-02-12T19:12:45.084Z,3.50
2019-02-12T19:15:15.775Z,3.60
2019-02-12T19:17:46.506Z,3.50
2019-02-12T19:20:15.091Z,3.50
2019-02-12T19:22:43.514Z,3.60
2019-02-12T19:25:12.087Z,3.60
2019-02-12T19:27:40.510Z,3.60
2019-02-12T19:30:16.185Z,3.70
2019-02-12T19:32:44.967Z,3.70
2019-02-12T19:35:13.498Z,3.80
2019-02-12T19:37:42.008Z,3.80
2019-02-12T19:40:11.724Z,3.80
2019-02-12T19:42:40.246Z,3.80
2019-02-12T19:45:13.947Z,3.70
2019-02-12T19:47:42.384Z,3.80
2019-02-12T19:50:11.823Z,3.70
2019-02-12T19:52:40.237Z,3.70
2019-02-12T19:55:09.502Z,3.70
2019-02-12T19:57:37.927Z,3.70
2019-02-12T20:00:16.999Z,3.80
2019-02-12T20:02:45.411Z,3.70
2019-02-12T20:05:13.915Z,3.70
2019-02-12T20:07:42.334Z,3.70
2019-02-12T20:10:13.196Z,3.80
2019-02-12T20:12:41.659Z,3.80
2019-02-12T20:15:15.794Z,3.80
2019-02-12T20:17:44.198Z,3.80
2019-02-12T20:20:13.531Z,3.90
2019-02-12T20:22:42.011Z,3.80
2019-02-12T20:25:11.428Z,3.90
2019-02-12T20:27:39.867Z,3.90
2019-02-12T20:30:18.823Z,3.90
2019-02-12T20:32:47.313Z,3.90
2019-02-12T20:35:20.769Z,3.90
2019-02-12T20:37:49.510Z,3.90
2019-02-12T20:40:18.185Z,3.80
2019-02-12T20:42:46.621Z,3.80
2019-02-12T20:45:16.268Z,3.70
2019-02-12T20:47:44.765Z,3.80
2019-02-12T20:50:18.260Z,3.90
2019-02-12T20:52:46.670Z,3.80
2019-02-12T20:55:15.093Z,3.80
2019-02-12T20:57:43.520Z,3.80
2019-02-12T21:00:14.627Z,3.80
2019-02-12T21:02:43.027Z,3.80
2019-02-12T21:05:13.395Z,3.80
2019-02-12T21:07:41.814Z,3.70
2019-02-12T21:10:12.792Z,3.70
2019-02-12T21:12:41.329Z,3.80
2019-02-12T21:15:12.874Z,3.80
2019-02-12T21:17:41.359Z,3.70
2019-02-12T21:20:11.130Z,3.70
2019-02-12T21:22:40.820Z,3.80
2019-02-12T21:25:11.311Z,3.80
2019-02-12T21:27:39.741Z,3.70
2019-02-12T21:30:25.983Z,3.70
2019-02-12T21:32:54.415Z,3.80
2019-02-12T21:35:22.920Z,3.80
2019-02-12T21:37:51.362Z,3.80
2019-02-12T21:40:25.103Z,3.70
2019-02-12T21:42:53.603Z,3.80
2019-02-12T21:45:22.085Z,3.80
2019-02-12T21:47:50.570Z,3.80
2019-02-12T21:50:19.008Z,3.90
2019-02-12T21:52:47.438Z,3.90
2019-02-12T21:55:18.471Z,3.80
2019-02-12T21:57:46.872Z,3.80
2019-02-12T22:00:20.344Z,3.80
2019-02-12T22:02:48.789Z,3.80
2019-02-12T22:05:17.594Z,3.80
2019-02-12T22:07:46.258Z,3.90
2019-02-12T22:10:20.342Z,3.90
2019-02-12T22:12:48.867Z,4.00
2019-02-12T22:15:17.266Z,4.00
2019-02-12T22:17:45.718Z,4.00
2019-02-12T22:20:16.282Z,4.00
2019-02-12T22:22:44.694Z,4.00
2019-02-12T22:25:13.200Z,4.00
2019-02-12T22:27:41.621Z,4.00
2019-02-12T22:30:18.403Z,4.10
2019-02-12T22:32:46.899Z,4.10
2019-02-12T22:35:15.430Z,4.10
2019-02-12T22:37:43.860Z,4.10
2019-02-12T22:40:16.195Z,4.20
2019-02-12T22:42:44.838Z,4.20
2019-02-12T22:45:15.519Z,4.20
2019-02-12T22:47:43.927Z,4.10
2019-02-12T22:50:13.079Z,4.20
2019-02-12T22:52:42.198Z,4.20
2019-02-12T22:55:11.076Z,4.30
2019-02-12T22:57:39.503Z,4.20
2019-02-12T23:00:13.654Z,4.20
2019-02-12T23:02:42.054Z,4.30
2019-02-12T23:05:10.489Z,4.30
2019-02-12T23:07:38.974Z,4.30
2019-02-12T23:10:09.226Z,4.30
2019-02-12T23:12:37.663Z,4.30
2019-02-12T23:15:09.165Z,4.30
2019-02-12T23:17:37.635Z,4.30
2019-02-12T23:20:06.793Z,4.30
2019-02-12T23:22:35.222Z,4.30
2019-02-12T23:25:03.909Z,4.30
2019-02-12T23:27:32.322Z,4.30
2019-02-12T23:30:00.763Z,4.30
2019-02-12T23:32:29.171Z,4.40
2019-02-12T23:34:57.603Z,4.40
2019-02-12T23:37:26.038Z,4.40
2019-02-12T23:39:54.564Z,4.40
2019-02-12T23:42:23.009Z,4.40
2019-02-12T23:44:51.433Z,4.40
2019-02-12T23:47:19.866Z,4.40
2019-02-12T23:49:48.275Z,4.40
2019-02-12T23:52:16.699Z,4.40
2019-02-12T23:54:45.135Z,4.40
2019-02-12T23:57:13.566Z,4.40
2019-02-12T23:59:41.972Z,4.40
